Hewittville, New York
Current Conditions -  °F | °C
As of 6:53 PM on Sunday 23 Nov 2014 (Local Time) from KMSS Reporting Station
Overcast Overcast  
Wind Chill: 44°   Ceiling: 4800
Heat Index: 46°   Visibility: 10mi
Dew Point: 41°   Wind: 5mph
Humidity: 83%   Direction: 110°ESE
Pressure: 29.98"   Gusts: NA
Location:  44.7612°N, 74.9585°W
Report Text: KMSS 232353Z AUTO 11004KT 10SM BKN048 OVC060 08/05 A2998 RMK AO2 SLP155 T00780050 10106 20061 56008
Loading
Personal Weather Stations






























Interactive Weather Map New forecast layout! Learn more

10-Day Weather Forecast

Advertisements
Track Severe Weather on mobile